createdAt,value
2019-03-24T00:00:33.418Z,11.56
2019-03-24T00:01:41.461Z,11.54
2019-03-24T00:02:45.564Z,11.53
2019-03-24T00:03:49.987Z,11.50
2019-03-24T00:04:54.866Z,11.47
2019-03-24T00:05:59.337Z,11.46
2019-03-24T00:07:03.784Z,11.45
2019-03-24T00:08:08.168Z,11.44
2019-03-24T00:09:12.620Z,11.41
2019-03-24T00:10:17.148Z,11.41
2019-03-24T00:11:21.860Z,11.39
2019-03-24T00:12:26.636Z,11.38
2019-03-24T00:13:31.262Z,11.37
2019-03-24T00:14:35.797Z,11.34
2019-03-24T00:15:40.445Z,11.33
2019-03-24T00:16:44.989Z,11.30
2019-03-24T00:17:49.449Z,11.29
2019-03-24T00:18:53.980Z,11.29
2019-03-24T00:19:58.360Z,11.27
2019-03-24T00:21:03.002Z,11.27
2019-03-24T00:22:07.738Z,11.27
2019-03-24T00:23:12.204Z,11.25
2019-03-24T00:24:16.656Z,11.25
2019-03-24T00:25:21.108Z,11.23
2019-03-24T00:26:25.503Z,11.22
2019-03-24T00:27:30.129Z,11.21
2019-03-24T00:28:34.699Z,11.20
2019-03-24T00:29:39.082Z,11.17
2019-03-24T00:30:43.607Z,11.15
2019-03-24T00:31:48.005Z,11.14
2019-03-24T00:32:52.700Z,11.12
2019-03-24T00:33:57.335Z,11.13
2019-03-24T00:35:02.290Z,11.10
2019-03-24T00:36:06.761Z,11.09
2019-03-24T00:37:11.391Z,11.09
2019-03-24T00:38:16.353Z,11.07
2019-03-24T00:39:21.043Z,11.06
2019-03-24T00:40:25.496Z,11.05
2019-03-24T00:41:30.465Z,11.03
2019-03-24T00:42:35.241Z,11.02
2019-03-24T00:43:39.704Z,11.00
2019-03-24T00:44:44.077Z,10.99
2019-03-24T00:45:49.105Z,10.97
2019-03-24T00:46:53.825Z,10.96
2019-03-24T00:47:58.297Z,10.92
2019-03-24T00:49:02.680Z,10.89
2019-03-24T00:50:07.772Z,10.85
2019-03-24T00:51:12.546Z,10.84
2019-03-24T00:52:16.939Z,10.82
2019-03-24T00:53:21.463Z,10.80
2019-03-24T00:54:25.914Z,10.78
2019-03-24T00:55:30.441Z,10.76
2019-03-24T00:56:35.082Z,10.75
2019-03-24T00:57:39.823Z,10.73
2019-03-24T00:58:44.271Z,10.72
2019-03-24T00:59:48.977Z,10.70
2019-03-24T01:00:54.073Z,10.70
2019-03-24T01:01:58.872Z,10.68
2019-03-24T01:03:03.324Z,10.66
2019-03-24T01:04:08.285Z,10.64
2019-03-24T01:05:12.803Z,10.62
2019-03-24T01:06:17.507Z,10.61
2019-03-24T01:07:22.146Z,10.59
2019-03-24T01:08:26.671Z,10.59
2019-03-24T01:09:31.202Z,10.57
2019-03-24T01:10:35.647Z,10.54
2019-03-24T01:11:40.103Z,10.55
2019-03-24T01:12:44.815Z,10.52
2019-03-24T01:13:49.344Z,10.47
2019-03-24T01:14:54.056Z,10.45
2019-03-24T01:15:58.834Z,10.42
2019-03-24T01:17:03.397Z,10.40
2019-03-24T01:18:07.845Z,10.37
2019-03-24T01:19:12.872Z,10.37
2019-03-24T01:20:17.925Z,10.35
2019-03-24T01:21:22.868Z,10.32
2019-03-24T01:22:27.408Z,10.32
2019-03-24T01:23:31.938Z,10.31
2019-03-24T01:24:36.391Z,10.30
2019-03-24T01:25:41.093Z,10.29
2019-03-24T01:26:45.547Z,10.27
2019-03-24T01:27:50.310Z,10.26
2019-03-24T01:28:54.936Z,10.25
2019-03-24T01:29:59.401Z,10.25
2019-03-24T01:31:04.175Z,10.24
2019-03-24T01:32:08.749Z,10.24
2019-03-24T01:33:13.502Z,10.23
2019-03-24T01:34:18.205Z,10.21
2019-03-24T01:35:22.666Z,10.22
2019-03-24T01:36:27.540Z,10.21
2019-03-24T01:37:32.501Z,10.19
2019-03-24T01:38:37.139Z,10.19
2019-03-24T01:39:41.909Z,10.18
2019-03-24T01:40:46.364Z,10.17
2019-03-24T01:41:50.820Z,10.16
2019-03-24T01:42:55.538Z,10.14
2019-03-24T01:43:59.987Z,10.12
2019-03-24T01:45:04.891Z,10.11
2019-03-24T01:46:09.428Z,10.10
2019-03-24T01:47:13.876Z,10.07
2019-03-24T01:48:19.268Z,10.05
2019-03-24T01:49:23.717Z,10.04
2019-03-24T01:50:28.164Z,10.02
2019-03-24T01:51:32.634Z,9.99
2019-03-24T01:52:37.356Z,9.99
2019-03-24T01:53:41.805Z,9.97
2019-03-24T01:54:46.248Z,9.94
2019-03-24T01:55:50.756Z,9.93
2019-03-24T01:56:55.137Z,9.90
2019-03-24T01:57:59.765Z,9.88
2019-03-24T01:59:04.392Z,9.86
2019-03-24T02:00:09.225Z,9.85
2019-03-24T02:01:14.493Z,9.83
2019-03-24T02:02:19.025Z,9.80
2019-03-24T02:03:23.479Z,9.80
2019-03-24T02:04:27.927Z,9.78
2019-03-24T02:05:32.304Z,9.78
2019-03-24T02:06:38.648Z,9.78
2019-03-24T02:07:43.131Z,9.77
2019-03-24T02:08:47.664Z,9.76
2019-03-24T02:09:52.184Z,9.75
2019-03-24T02:10:56.875Z,9.74
2019-03-24T02:12:01.651Z,9.73
2019-03-24T02:13:06.177Z,9.72
2019-03-24T02:14:10.804Z,9.70
2019-03-24T02:15:15.871Z,9.70
2019-03-24T02:16:20.637Z,9.68
2019-03-24T02:17:25.408Z,9.67
2019-03-24T02:18:30.160Z,9.65
2019-03-24T02:19:34.533Z,9.65
2019-03-24T02:20:38.976Z,9.63
2019-03-24T02:21:43.923Z,9.61
2019-03-24T02:22:48.516Z,9.60
2019-03-24T02:23:53.229Z,9.58
2019-03-24T02:24:57.596Z,9.55
2019-03-24T02:26:02.043Z,9.53
2019-03-24T02:27:06.571Z,9.50
2019-03-24T02:28:10.942Z,9.49
2019-03-24T02:29:15.829Z,9.48
2019-03-24T02:30:20.216Z,9.47
2019-03-24T02:31:24.917Z,9.46
2019-03-24T02:32:29.354Z,9.45
2019-03-24T02:33:33.893Z,9.42
2019-03-24T02:34:38.662Z,9.41
2019-03-24T02:35:43.186Z,9.39
2019-03-24T02:36:47.701Z,9.39
2019-03-24T02:37:52.141Z,9.37
2019-03-24T02:38:56.526Z,9.36
2019-03-24T02:40:01.163Z,9.36
2019-03-24T02:41:05.681Z,9.36
2019-03-24T02:42:10.377Z,9.36
2019-03-24T02:43:14.753Z,9.34
2019-03-24T02:44:19.213Z,9.33
2019-03-24T02:45:23.735Z,9.32
2019-03-24T02:46:28.122Z,9.30
2019-03-24T02:47:32.495Z,9.29
2019-03-24T02:48:37.111Z,9.28
2019-03-24T02:49:41.590Z,9.25
2019-03-24T02:50:46.026Z,9.23
2019-03-24T02:51:50.905Z,9.20
2019-03-24T02:52:55.600Z,9.18
2019-03-24T02:53:59.979Z,9.14
2019-03-24T02:55:04.525Z,9.10
2019-03-24T02:56:09.220Z,9.06
2019-03-24T02:57:13.610Z,9.05
2019-03-24T02:58:18.294Z,9.03
2019-03-24T02:59:22.746Z,9.02
2019-03-24T03:00:27.573Z,9.01
2019-03-24T03:01:32.350Z,8.99
2019-03-24T03:02:36.810Z,8.97
2019-03-24T03:03:41.502Z,8.96
2019-03-24T03:04:45.958Z,8.94
2019-03-24T03:05:50.333Z,8.94
2019-03-24T03:06:54.948Z,8.91
2019-03-24T03:07:59.634Z,8.91
2019-03-24T03:09:05.374Z,8.89
2019-03-24T03:10:10.330Z,8.89
2019-03-24T03:11:15.341Z,8.88
2019-03-24T03:12:20.045Z,8.86
2019-03-24T03:13:24.732Z,8.85
2019-03-24T03:14:29.111Z,8.84
2019-03-24T03:15:33.598Z,8.81
2019-03-24T03:16:39.262Z,8.79
2019-03-24T03:17:43.866Z,8.75
2019-03-24T03:18:48.475Z,8.72
2019-03-24T03:19:53.799Z,8.71
2019-03-24T03:20:58.871Z,8.68
2019-03-24T03:22:03.321Z,8.65
2019-03-24T03:23:07.841Z,8.63
2019-03-24T03:24:13.114Z,8.61
2019-03-24T03:25:17.616Z,8.61
2019-03-24T03:26:22.560Z,8.59
2019-03-24T03:27:27.319Z,8.58
2019-03-24T03:28:31.930Z,8.59
2019-03-24T03:29:36.314Z,8.58
2019-03-24T03:30:40.705Z,8.59
2019-03-24T03:31:45.101Z,8.59
2019-03-24T03:32:49.459Z,8.60
2019-03-24T03:33:54.419Z,8.58
2019-03-24T03:34:59.123Z,8.58
2019-03-24T03:36:03.908Z,8.57
2019-03-24T03:37:08.448Z,8.55
2019-03-24T03:38:13.171Z,8.55
2019-03-24T03:39:17.662Z,8.53
2019-03-24T03:40:22.184Z,8.50
2019-03-24T03:41:26.641Z,8.48
2019-03-24T03:42:31.275Z,8.47
2019-03-24T03:43:35.791Z,8.47
2019-03-24T03:44:40.239Z,8.45
2019-03-24T03:45:44.776Z,8.45
2019-03-24T03:46:53.013Z,8.45
2019-03-24T03:47:55.576Z,8.44
2019-03-24T03:49:00.028Z,8.44
2019-03-24T03:50:05.028Z,8.44
2019-03-24T03:51:09.492Z,8.45
2019-03-24T03:52:13.995Z,8.43
2019-03-24T03:53:18.649Z,8.44
2019-03-24T03:54:23.025Z,8.32
2019-03-24T03:55:27.799Z,8.43
2019-03-24T03:56:32.509Z,8.43
2019-03-24T03:57:36.913Z,8.43
2019-03-24T03:58:41.363Z,8.43
2019-03-24T03:59:46.249Z,8.42
2019-03-24T04:00:50.787Z,8.42
2019-03-24T04:01:55.219Z,8.41
2019-03-24T04:02:59.594Z,8.40
2019-03-24T04:04:04.312Z,8.38
2019-03-24T04:05:08.822Z,8.38
2019-03-24T04:06:13.355Z,8.37
2019-03-24T04:07:17.969Z,8.35
2019-03-24T04:08:22.668Z,8.34
2019-03-24T04:09:27.369Z,8.33
2019-03-24T04:10:32.137Z,8.31
2019-03-24T04:11:36.863Z,8.30
2019-03-24T04:12:41.625Z,8.28
2019-03-24T04:13:46.245Z,8.27
2019-03-24T04:14:50.632Z,8.25
2019-03-24T04:15:55.007Z,8.22
2019-03-24T04:17:07.236Z,8.20
2019-03-24T04:18:06.430Z,8.19
2019-03-24T04:19:10.782Z,8.18
2019-03-24T04:20:15.473Z,8.17
2019-03-24T04:21:20.009Z,8.15
2019-03-24T04:22:24.624Z,8.13
2019-03-24T04:23:29.010Z,8.11
2019-03-24T04:24:33.367Z,8.07
2019-03-24T04:25:37.996Z,8.04
2019-03-24T04:26:42.382Z,8.01
2019-03-24T04:27:47.157Z,7.99
2019-03-24T04:28:52.029Z,7.98
2019-03-24T04:29:56.401Z,7.96
2019-03-24T04:31:01.204Z,7.95
2019-03-24T04:32:05.979Z,7.96
2019-03-24T04:33:10.363Z,7.97
2019-03-24T04:34:15.241Z,7.96
2019-03-24T04:35:19.924Z,7.96
2019-03-24T04:36:24.811Z,7.96
2019-03-24T04:37:29.276Z,7.95
2019-03-24T04:38:33.892Z,7.95
2019-03-24T04:39:38.589Z,7.95
2019-03-24T04:40:43.265Z,7.96
2019-03-24T04:41:48.198Z,7.96
2019-03-24T04:42:52.655Z,7.96
2019-03-24T04:43:57.028Z,7.94
2019-03-24T04:45:02.298Z,7.94
2019-03-24T04:46:06.733Z,7.94
2019-03-24T04:47:16.619Z,7.94
2019-03-24T04:48:17.215Z,7.92
2019-03-24T04:49:21.915Z,7.92
2019-03-24T04:50:26.287Z,7.90
2019-03-24T04:51:30.665Z,7.88
2019-03-24T04:52:35.121Z,7.87
2019-03-24T04:53:39.987Z,7.86
2019-03-24T04:54:44.429Z,7.85
2019-03-24T04:55:49.127Z,7.86
2019-03-24T04:56:53.814Z,7.86
2019-03-24T04:57:58.285Z,7.85
2019-03-24T04:59:02.889Z,7.83
2019-03-24T05:00:08.135Z,7.82
2019-03-24T05:01:12.751Z,7.80
2019-03-24T05:02:17.213Z,7.80
2019-03-24T05:03:21.589Z,7.78
2019-03-24T05:04:26.102Z,7.78
2019-03-24T05:05:31.126Z,7.77
2019-03-24T05:06:35.695Z,7.76
2019-03-24T05:07:41.210Z,7.76
2019-03-24T05:08:46.424Z,7.75
2019-03-24T05:09:50.949Z,7.74
2019-03-24T05:10:55.458Z,7.73
2019-03-24T05:11:59.893Z,7.72
2019-03-24T05:13:04.662Z,7.71
2019-03-24T05:14:09.029Z,7.71
2019-03-24T05:15:13.482Z,7.69
2019-03-24T05:16:18.345Z,7.68
2019-03-24T05:17:27.362Z,7.68
2019-03-24T05:18:29.149Z,7.66
2019-03-24T05:19:33.763Z,7.67
2019-03-24T05:20:38.199Z,7.67
2019-03-24T05:21:42.916Z,7.67
2019-03-24T05:22:47.411Z,7.66
2019-03-24T05:23:51.777Z,7.66
2019-03-24T05:24:56.684Z,7.64
2019-03-24T05:26:01.050Z,7.45
2019-03-24T05:27:05.815Z,7.64
2019-03-24T05:28:10.772Z,7.65
2019-03-24T05:29:15.148Z,7.68
2019-03-24T05:30:19.908Z,7.70
2019-03-24T05:31:24.282Z,7.72
2019-03-24T05:32:28.723Z,7.76
2019-03-24T05:33:33.112Z,7.81
2019-03-24T05:34:37.854Z,7.84
2019-03-24T05:35:42.781Z,7.87
2019-03-24T05:36:47.400Z,7.91
2019-03-24T05:37:51.852Z,7.94
2019-03-24T05:38:56.546Z,7.95
2019-03-24T05:40:01.242Z,7.98
2019-03-24T05:41:05.759Z,8.01
2019-03-24T05:42:10.452Z,8.02
2019-03-24T05:43:15.328Z,8.03
2019-03-24T05:44:19.945Z,8.08
2019-03-24T05:45:24.703Z,8.09
2019-03-24T05:46:29.071Z,8.11
2019-03-24T05:47:37.313Z,8.11
2019-03-24T05:48:39.623Z,8.11
2019-03-24T05:49:44.248Z,8.11
2019-03-24T05:50:48.890Z,8.11
2019-03-24T05:51:53.248Z,8.10
2019-03-24T05:52:57.881Z,8.09
2019-03-24T05:54:02.257Z,8.08
2019-03-24T05:55:06.951Z,8.08
2019-03-24T05:56:11.563Z,8.08
2019-03-24T05:57:16.078Z,8.09
2019-03-24T05:58:21.047Z,8.09
2019-03-24T05:59:25.686Z,8.10
2019-03-24T06:00:30.131Z,8.09
2019-03-24T06:01:34.999Z,8.08
2019-03-24T06:02:39.765Z,8.08
2019-03-24T06:03:44.476Z,8.07
2019-03-24T06:04:49.162Z,8.07
2019-03-24T06:05:53.539Z,8.07
2019-03-24T06:06:57.921Z,8.06
2019-03-24T06:08:02.861Z,8.04
2019-03-24T06:09:07.880Z,8.04
2019-03-24T06:10:12.495Z,8.04
2019-03-24T06:11:17.262Z,8.04
2019-03-24T06:12:21.637Z,8.06
2019-03-24T06:13:26.040Z,8.05
2019-03-24T06:14:30.903Z,8.06
2019-03-24T06:15:36.184Z,8.03
2019-03-24T06:16:40.964Z,8.02
2019-03-24T06:17:48.090Z,8.01
2019-03-24T06:18:52.082Z,8.00
2019-03-24T06:19:56.532Z,7.98
2019-03-24T06:21:01.052Z,7.98
2019-03-24T06:22:05.570Z,7.97
2019-03-24T06:23:09.944Z,7.96
2019-03-24T06:24:14.971Z,7.96
2019-03-24T06:25:19.346Z,7.98
2019-03-24T06:26:23.705Z,8.00
2019-03-24T06:27:28.903Z,8.01
2019-03-24T06:28:33.276Z,8.03
2019-03-24T06:29:37.663Z,8.07
2019-03-24T06:30:42.035Z,8.08
2019-03-24T06:31:46.402Z,8.11
2019-03-24T06:32:50.847Z,8.14
2019-03-24T06:33:55.308Z,8.16
2019-03-24T06:34:59.918Z,8.21
2019-03-24T06:36:04.358Z,8.25
2019-03-24T06:37:08.721Z,8.29
2019-03-24T06:38:13.414Z,8.34
2019-03-24T06:39:17.807Z,8.38
2019-03-24T06:40:22.496Z,8.43
2019-03-24T06:41:26.943Z,8.48
2019-03-24T06:42:31.877Z,8.51
2019-03-24T06:43:36.241Z,8.55
2019-03-24T06:44:40.875Z,8.58
2019-03-24T06:45:45.324Z,8.63
2019-03-24T06:46:49.769Z,8.66
2019-03-24T06:47:58.246Z,8.71
2019-03-24T06:49:00.966Z,8.75
2019-03-24T06:50:05.621Z,8.78
2019-03-24T06:51:10.152Z,8.79
2019-03-24T06:52:15.203Z,8.83
2019-03-24T06:53:19.901Z,8.85
2019-03-24T06:54:24.344Z,8.86
2019-03-24T06:55:29.069Z,8.88
2019-03-24T06:56:33.520Z,8.91
2019-03-24T06:57:38.279Z,8.94
2019-03-24T06:58:42.922Z,8.95
2019-03-24T06:59:47.315Z,8.98
2019-03-24T07:00:51.828Z,9.00
2019-03-24T07:01:56.459Z,9.01
2019-03-24T07:03:00.906Z,9.04
2019-03-24T07:04:05.423Z,9.07
2019-03-24T07:05:10.608Z,9.10
2019-03-24T07:06:15.465Z,9.12
2019-03-24T07:07:20.148Z,9.15
2019-03-24T07:08:24.519Z,9.17
2019-03-24T07:09:28.971Z,9.20
2019-03-24T07:10:33.364Z,9.22
2019-03-24T07:11:38.078Z,9.26
2019-03-24T07:12:42.822Z,9.28
2019-03-24T07:13:47.192Z,9.31
2019-03-24T07:14:51.817Z,9.34
2019-03-24T07:15:56.279Z,9.37
2019-03-24T07:17:00.651Z,9.40
2019-03-24T07:18:08.737Z,9.43
2019-03-24T07:19:11.196Z,9.46
2019-03-24T07:20:15.739Z,9.48
2019-03-24T07:21:20.379Z,9.49
2019-03-24T07:22:24.768Z,9.51
2019-03-24T07:23:29.145Z,9.53
2019-03-24T07:24:33.594Z,9.54
2019-03-24T07:25:38.055Z,9.53
2019-03-24T07:26:42.492Z,9.53
2019-03-24T07:27:47.115Z,9.52
2019-03-24T07:28:51.563Z,9.53
2019-03-24T07:29:56.255Z,9.53
2019-03-24T07:31:00.714Z,9.54
2019-03-24T07:32:05.422Z,9.56
2019-03-24T07:33:10.038Z,9.60
2019-03-24T07:34:14.657Z,9.62
2019-03-24T07:35:19.030Z,9.67
2019-03-24T07:36:23.415Z,9.70
2019-03-24T07:37:28.047Z,9.74
2019-03-24T07:38:32.414Z,9.77
2019-03-24T07:39:36.794Z,9.80
2019-03-24T07:40:41.243Z,9.82
2019-03-24T07:41:45.647Z,9.85
2019-03-24T07:42:50.330Z,9.88
2019-03-24T07:43:55.026Z,9.92
2019-03-24T07:44:59.526Z,9.95
2019-03-24T07:46:03.993Z,9.98
2019-03-24T07:47:13.676Z,10.02
2019-03-24T07:48:19.323Z,10.06
2019-03-24T07:49:24.066Z,10.11
2019-03-24T07:50:28.755Z,10.15
2019-03-24T07:51:33.820Z,10.19
2019-03-24T07:52:38.257Z,10.21
2019-03-24T07:53:42.630Z,10.25
2019-03-24T07:54:47.075Z,10.27
2019-03-24T07:55:51.851Z,10.31
2019-03-24T07:56:56.374Z,10.33
2019-03-24T07:58:00.740Z,10.38
2019-03-24T07:59:05.256Z,10.40
2019-03-24T08:00:11.491Z,10.44
2019-03-24T08:01:16.193Z,10.49
2019-03-24T08:02:20.642Z,10.54
2019-03-24T08:03:25.350Z,10.58
2019-03-24T08:04:29.797Z,10.61
2019-03-24T08:05:34.416Z,10.66
2019-03-24T08:06:39.044Z,10.73
2019-03-24T08:07:43.491Z,10.75
2019-03-24T08:08:48.232Z,10.79
2019-03-24T08:09:52.850Z,10.84
2019-03-24T08:10:57.600Z,10.89
2019-03-24T08:12:02.554Z,10.93
2019-03-24T08:13:07.074Z,10.97
2019-03-24T08:14:11.692Z,11.01
2019-03-24T08:15:16.218Z,11.06
2019-03-24T08:16:20.607Z,11.12
2019-03-24T08:17:25.045Z,11.17
2019-03-24T08:18:30.339Z,11.25
2019-03-24T08:19:34.817Z,11.32
2019-03-24T08:20:39.607Z,11.39
2019-03-24T08:21:44.311Z,11.46
2019-03-24T08:22:48.826Z,11.52
2019-03-24T08:23:53.507Z,11.59
2019-03-24T08:24:57.880Z,11.65
2019-03-24T08:26:02.402Z,11.71
2019-03-24T08:27:06.936Z,11.77
2019-03-24T08:28:14.499Z,11.86
2019-03-24T08:29:24.098Z,11.93
2019-03-24T08:30:37.552Z,12.04
2019-03-24T08:31:45.582Z,12.11
2019-03-24T08:32:55.938Z,12.20
2019-03-24T08:34:00.397Z,12.28
2019-03-24T08:35:04.967Z,12.36
2019-03-24T08:36:09.417Z,12.42
2019-03-24T08:37:13.876Z,12.46
2019-03-24T08:38:18.317Z,12.50
2019-03-24T08:39:22.691Z,12.56
2019-03-24T08:40:27.137Z,12.57
2019-03-24T08:41:32.091Z,12.60
2019-03-24T08:42:36.612Z,12.64
2019-03-24T08:43:41.243Z,12.65
2019-03-24T08:44:46.046Z,12.68
2019-03-24T08:45:50.468Z,12.68
2019-03-24T08:46:55.587Z,12.68
2019-03-24T08:48:00.358Z,12.69
2019-03-24T08:49:04.885Z,12.69
2019-03-24T08:50:09.347Z,12.69
2019-03-24T08:51:13.715Z,12.70
2019-03-24T08:52:18.432Z,12.70
2019-03-24T08:53:22.811Z,12.71
2019-03-24T08:54:27.186Z,12.73
2019-03-24T08:55:31.978Z,12.75
2019-03-24T08:56:36.430Z,12.76
2019-03-24T08:57:41.063Z,12.79
2019-03-24T08:58:45.927Z,12.82
2019-03-24T08:59:50.627Z,12.84
2019-03-24T09:00:55.003Z,12.87
2019-03-24T09:01:59.623Z,12.89
2019-03-24T09:03:04.354Z,12.92
2019-03-24T09:04:08.807Z,12.97
2019-03-24T09:05:13.341Z,13.00
2019-03-24T09:06:17.867Z,13.04
2019-03-24T09:07:22.563Z,13.06
2019-03-24T09:08:27.286Z,13.11
2019-03-24T09:09:31.701Z,13.14
2019-03-24T09:10:36.148Z,13.17
2019-03-24T09:11:40.526Z,13.20
2019-03-24T09:12:45.169Z,13.23
2019-03-24T09:13:50.122Z,13.27
2019-03-24T09:14:54.584Z,13.31
2019-03-24T09:15:59.031Z,13.34
2019-03-24T09:17:03.656Z,13.36
2019-03-24T09:18:08.213Z,13.40
2019-03-24T09:19:12.748Z,13.41
2019-03-24T09:20:17.275Z,13.40
2019-03-24T09:21:21.726Z,13.42
2019-03-24T09:22:26.204Z,13.47
2019-03-24T09:23:30.577Z,13.50
2019-03-24T09:24:35.025Z,13.55
2019-03-24T09:25:39.717Z,13.58
2019-03-24T09:26:44.098Z,13.62
2019-03-24T09:27:48.566Z,13.67
2019-03-24T09:28:52.945Z,13.70
2019-03-24T09:29:57.716Z,13.71
2019-03-24T09:31:02.194Z,13.72
2019-03-24T09:32:06.725Z,13.73
2019-03-24T09:33:11.508Z,13.77
2019-03-24T09:34:15.952Z,13.77
2019-03-24T09:35:20.327Z,13.79
2019-03-24T09:36:25.022Z,13.81
2019-03-24T09:37:29.401Z,13.84
2019-03-24T09:38:33.872Z,13.87
2019-03-24T09:39:38.323Z,13.94
2019-03-24T09:40:42.856Z,13.96
2019-03-24T09:41:47.492Z,13.99
2019-03-24T09:42:54.281Z,14.02
2019-03-24T09:43:58.948Z,14.07
2019-03-24T09:45:03.523Z,14.11
2019-03-24T09:46:10.094Z,14.18
2019-03-24T09:47:14.397Z,14.19
2019-03-24T09:48:18.854Z,14.19
2019-03-24T09:49:23.695Z,14.19
2019-03-24T09:50:28.510Z,14.20
2019-03-24T09:51:32.884Z,14.23
2019-03-24T09:52:37.401Z,14.28
2019-03-24T09:53:42.131Z,14.32
2019-03-24T09:54:46.998Z,14.36
2019-03-24T09:56:51.051Z,14.48
2019-03-24T09:57:55.872Z,14.46
2019-03-24T09:59:00.472Z,14.51
2019-03-24T10:00:05.548Z,14.53
2019-03-24T10:01:10.290Z,14.57
2019-03-24T10:02:14.977Z,14.63
2019-03-24T10:03:19.360Z,14.68
2019-03-24T10:04:23.820Z,14.74
2019-03-24T10:05:28.402Z,14.83
2019-03-24T10:06:32.851Z,14.91
2019-03-24T10:07:37.703Z,14.97
2019-03-24T10:08:47.059Z,15.03
2019-03-24T10:09:48.606Z,15.09
2019-03-24T10:10:53.906Z,15.14
2019-03-24T10:11:58.408Z,15.20
2019-03-24T10:13:03.266Z,15.23
2019-03-24T10:14:07.734Z,15.21
2019-03-24T10:15:12.765Z,15.23
2019-03-24T10:16:18.318Z,15.26
2019-03-24T10:17:22.702Z,15.29
2019-03-24T10:18:27.406Z,15.31
2019-03-24T10:19:32.278Z,15.35
2019-03-24T10:20:36.734Z,15.38
2019-03-24T10:21:41.225Z,15.48
2019-03-24T10:22:45.696Z,15.50
2019-03-24T10:23:50.740Z,15.52
2019-03-24T10:24:55.390Z,15.50
2019-03-24T10:26:00.007Z,15.54
2019-03-24T10:27:04.460Z,15.56
2019-03-24T10:28:08.928Z,15.62
2019-03-24T10:29:13.320Z,15.67
2019-03-24T10:30:18.090Z,15.74
2019-03-24T10:31:22.562Z,15.79
2019-03-24T10:32:27.010Z,15.95
2019-03-24T10:33:32.841Z,15.93
2019-03-24T10:34:37.281Z,15.94
2019-03-24T10:35:41.653Z,16.10
2019-03-24T10:36:46.028Z,16.06
2019-03-24T10:37:50.480Z,16.08
2019-03-24T10:38:55.134Z,16.13
2019-03-24T10:39:59.551Z,16.22
2019-03-24T10:41:03.961Z,16.20
2019-03-24T10:42:08.723Z,16.21
2019-03-24T10:43:13.181Z,16.25
2019-03-24T10:44:17.764Z,16.25
2019-03-24T10:45:22.219Z,16.34
2019-03-24T10:46:26.881Z,16.40
2019-03-24T10:47:31.367Z,16.46
2019-03-24T10:48:35.741Z,16.53
2019-03-24T10:49:40.210Z,16.63
2019-03-24T10:50:44.914Z,16.69
2019-03-24T10:51:49.629Z,16.76
2019-03-24T10:52:54.163Z,16.92
2019-03-24T10:53:58.660Z,16.91
2019-03-24T10:55:03.226Z,16.89
2019-03-24T10:56:07.626Z,16.90
2019-03-24T10:57:12.084Z,16.89
2019-03-24T10:58:16.543Z,16.92
2019-03-24T10:59:21.017Z,16.98
2019-03-24T11:00:37.327Z,16.97
2019-03-24T11:01:41.716Z,16.93
2019-03-24T11:02:46.091Z,16.95
2019-03-24T11:03:50.476Z,16.97
2019-03-24T11:04:54.921Z,17.03
2019-03-24T11:05:59.414Z,17.07
2019-03-24T11:07:03.942Z,17.10
2019-03-24T11:08:08.624Z,17.20
2019-03-24T11:09:13.277Z,17.25
2019-03-24T11:10:18.105Z,17.21
2019-03-24T11:11:22.780Z,17.14
2019-03-24T11:12:27.165Z,17.16
2019-03-24T11:13:31.806Z,17.17
2019-03-24T11:14:42.295Z,17.07
2019-03-24T11:15:47.071Z,17.21
2019-03-24T11:16:51.747Z,17.27
2019-03-24T11:17:56.485Z,17.30
2019-03-24T11:19:01.287Z,17.31
2019-03-24T11:20:06.618Z,17.34
2019-03-24T11:21:11.033Z,17.37
2019-03-24T11:22:15.737Z,17.42
2019-03-24T11:23:20.193Z,17.45
2019-03-24T11:24:25.534Z,17.48
2019-03-24T11:25:30.070Z,17.51
2019-03-24T11:26:34.554Z,17.54
2019-03-24T11:27:39.603Z,17.58
2019-03-24T11:28:44.387Z,17.63
2019-03-24T11:29:48.925Z,17.65
2019-03-24T11:30:53.621Z,17.61
2019-03-24T11:31:57.991Z,17.72
2019-03-24T11:33:02.711Z,17.73
2019-03-24T11:34:07.470Z,17.76
2019-03-24T11:35:12.779Z,17.85
2019-03-24T11:36:17.502Z,17.83
2019-03-24T11:37:22.169Z,17.78
2019-03-24T11:38:27.048Z,17.75
2019-03-24T11:39:31.426Z,17.76
2019-03-24T11:40:36.116Z,17.78
2019-03-24T11:41:40.540Z,17.83
2019-03-24T11:42:45.155Z,17.85
2019-03-24T11:43:49.888Z,17.88
2019-03-24T11:44:54.357Z,17.93
2019-03-24T11:45:59.118Z,17.96
2019-03-24T11:47:03.502Z,17.93
2019-03-24T11:48:08.121Z,17.98
2019-03-24T11:49:19.546Z,17.98
2019-03-24T11:50:23.993Z,17.99
2019-03-24T11:51:28.529Z,18.01
2019-03-24T11:52:33.550Z,18.04
2019-03-24T11:53:38.130Z,18.09
2019-03-24T11:54:42.506Z,18.16
2019-03-24T11:55:47.144Z,18.22
2019-03-24T11:56:51.848Z,18.25
2019-03-24T11:58:05.357Z,18.25
2019-03-24T11:59:03.138Z,18.32
2019-03-24T12:00:09.028Z,18.28
2019-03-24T12:01:13.568Z,18.27
2019-03-24T12:02:18.350Z,18.29
2019-03-24T12:03:25.227Z,18.14
2019-03-24T12:04:29.315Z,18.05
2019-03-24T12:05:34.115Z,18.02
2019-03-24T12:06:38.825Z,18.05
2019-03-24T12:07:43.330Z,18.10
2019-03-24T12:08:47.864Z,18.07
2019-03-24T12:09:52.573Z,18.07
2019-03-24T12:10:57.280Z,18.19
2019-03-24T12:12:01.745Z,18.16
2019-03-24T12:13:06.280Z,18.18
2019-03-24T12:14:11.245Z,18.01
2019-03-24T12:15:15.769Z,17.95
2019-03-24T12:16:20.555Z,17.97
2019-03-24T12:17:25.083Z,18.01
2019-03-24T12:18:29.526Z,18.03
2019-03-24T12:19:34.390Z,18.07
2019-03-24T12:20:39.093Z,18.22
2019-03-24T12:21:43.801Z,18.11
2019-03-24T12:22:48.267Z,18.08
2019-03-24T12:23:52.713Z,18.09
2019-03-24T12:24:57.416Z,18.05
2019-03-24T12:26:01.915Z,18.05
2019-03-24T12:27:06.374Z,18.09
2019-03-24T12:28:11.149Z,18.18
2019-03-24T12:29:15.594Z,18.22
2019-03-24T12:30:20.568Z,18.26
2019-03-24T12:31:24.960Z,18.37
2019-03-24T12:32:29.413Z,18.30
2019-03-24T12:33:34.199Z,18.30
2019-03-24T12:34:38.569Z,18.34
2019-03-24T12:35:42.933Z,18.39
2019-03-24T12:36:47.328Z,18.32
2019-03-24T12:37:51.957Z,18.30
2019-03-24T12:38:56.328Z,18.35
2019-03-24T12:40:01.025Z,18.24
2019-03-24T12:41:05.973Z,18.22
2019-03-24T12:42:10.939Z,18.30
2019-03-24T12:43:19.705Z,18.30
2019-03-24T12:44:21.492Z,18.32
2019-03-24T12:45:25.875Z,18.36
2019-03-24T12:46:30.580Z,18.43
2019-03-24T12:47:35.586Z,18.52
2019-03-24T12:48:40.252Z,18.74
2019-03-24T12:49:45.137Z,18.71
2019-03-24T12:50:49.757Z,18.64
2019-03-24T12:51:54.284Z,18.62
2019-03-24T12:52:58.758Z,18.61
2019-03-24T12:54:03.202Z,18.63
2019-03-24T12:55:08.582Z,18.65
2019-03-24T12:56:13.360Z,18.60
2019-03-24T12:57:18.383Z,18.61
2019-03-24T12:58:23.001Z,18.62
2019-03-24T12:59:27.706Z,18.63
2019-03-24T13:00:39.423Z,18.63
2019-03-24T13:01:43.788Z,18.63
2019-03-24T13:02:48.518Z,18.63
2019-03-24T13:03:52.979Z,18.64
2019-03-24T13:04:57.433Z,18.65
2019-03-24T13:06:01.973Z,18.67
2019-03-24T13:07:06.438Z,18.68
2019-03-24T13:08:29.198Z,18.71
2019-03-24T13:09:34.064Z,18.74
2019-03-24T13:10:38.760Z,18.75
2019-03-24T13:11:43.292Z,18.74
2019-03-24T13:12:47.847Z,18.82
2019-03-24T13:13:52.322Z,18.74
2019-03-24T13:14:56.718Z,18.65
2019-03-24T13:16:01.100Z,18.63
2019-03-24T13:17:05.869Z,18.60
2019-03-24T13:18:10.656Z,18.65
2019-03-24T13:19:15.267Z,18.69
2019-03-24T13:20:31.862Z,18.67
2019-03-24T13:21:25.968Z,18.61
2019-03-24T13:22:30.715Z,18.61
2019-03-24T13:23:35.421Z,18.53
2019-03-24T13:24:39.866Z,18.35
2019-03-24T13:25:44.642Z,18.25
2019-03-24T13:26:49.175Z,18.22
2019-03-24T13:27:53.887Z,18.22
2019-03-24T13:28:58.345Z,18.27
2019-03-24T13:30:02.929Z,18.28
2019-03-24T13:31:07.625Z,18.33
2019-03-24T13:32:12.090Z,18.38
2019-03-24T13:33:16.622Z,18.47
2019-03-24T13:34:21.390Z,18.47
2019-03-24T13:35:25.920Z,18.52
2019-03-24T13:36:30.302Z,18.49
2019-03-24T13:37:34.667Z,18.49
2019-03-24T13:38:39.217Z,18.49
2019-03-24T13:39:43.589Z,18.52
2019-03-24T13:40:48.049Z,18.50
2019-03-24T13:41:52.606Z,18.48
2019-03-24T13:42:57.315Z,18.46
2019-03-24T13:44:02.023Z,18.45
2019-03-24T13:45:06.669Z,18.44
2019-03-24T13:46:14.204Z,18.47
2019-03-24T13:47:18.974Z,18.52
2019-03-24T13:48:23.356Z,18.54
2019-03-24T13:49:27.811Z,18.54
2019-03-24T13:50:32.178Z,18.55
2019-03-24T13:51:36.999Z,18.56
2019-03-24T13:52:41.528Z,18.54
2019-03-24T13:53:46.319Z,18.53
2019-03-24T13:54:51.212Z,18.47
2019-03-24T13:55:55.812Z,18.48
2019-03-24T13:57:00.394Z,18.47
2019-03-24T13:58:05.109Z,18.52
2019-03-24T13:59:09.803Z,18.49
2019-03-24T14:00:15.902Z,18.52
2019-03-24T14:01:20.438Z,18.55
2019-03-24T14:02:25.208Z,18.46
2019-03-24T14:03:29.865Z,18.40
2019-03-24T14:04:34.860Z,18.38
2019-03-24T14:05:39.806Z,18.36
2019-03-24T14:06:44.588Z,18.37